Pagrindinis puslapis
METAR-TAF:

METAR-TAF

Oro uostai :

Brevig Mission, Aliaska, Jungtinės Amerikos Valstijos

platuma: 65-19-53N, ilguma: 166-27-57W, Aukštis: 11 m

Dabartinis oras

Ataskaita buvo paskelbta 13 minutes, ne 02:22 UTC
Vėjas 7 kt iš Rytų
Temperatūra 2°C
Drėgmė 87%
Slėgis 1011 hPa
Matomumas: 16.1 km
Išsisklaidę debesys ne aukštis 2700 ft
Su prošvaistėmis ne aukštis 3400 ft
Apsiniaukę ne aukštis 7000 ft

METAR: PFKT 140222Z AUTO 10007KT 10SM SCT027 BKN034 OVC070 02/00 A2985 RMK AO2 FZRANO

Laikas: 18:35 (02:35 UTC)


TAF: trūkstamas

Orai ataskaitas ir orų prognozės (METAR, TAF).

turimą stotys yra geltonos ir raudonos taškus žemėlapyje.

Perkelti pele per norėdami pamatyti stoties vardą.

Tada spustelėkite, norėdami matyti oro stebėjimo ir prognozės.

Norėdami pakeisti žemėlapį: spustelėkite ant žalios mygtukų su juodo kryžiaus žemyn,; žalią mygtuką su brūkšneliu, jei norite nutolinti; arba žalių rodyklių gretimoms žemėlapius.


METAR-TAF: